sensor_id;sensor_type;location;lat;lon;timestamp;pressure;altitude;pressure_sealevel;temperature;humidity
1371;BME280;14306;49.942;11.570;2023-02-12T00:01:21;99408.03;;;6.57;82.32
1371;BME280;14306;49.942;11.570;2023-02-12T00:03:50;99403.72;;;6.09;83.99
1371;BME280;14306;49.942;11.570;2023-02-12T00:06:18;99413.41;;;6.57;83.17
1371;BME280;14306;49.942;11.570;2023-02-12T00:08:48;99412.97;;;6.13;84.55
1371;BME280;14306;49.942;11.570;2023-02-12T00:11:19;99420.56;;;6.16;85.77
1371;BME280;14306;49.942;11.570;2023-02-12T00:13:49;99411.94;;;6.14;84.46
1371;BME280;14306;49.942;11.570;2023-02-12T00:16:20;99403.72;;;6.09;86.70
1371;BME280;14306;49.942;11.570;2023-02-12T00:18:51;99404.97;;;6.54;84.26
1371;BME280;14306;49.942;11.570;2023-02-12T00:21:19;99408.06;;;6.39;84.52
1371;BME280;14306;49.942;11.570;2023-02-12T00:23:48;99408.50;;;6.36;84.81
1371;BME280;14306;49.942;11.570;2023-02-12T00:26:18;99403.50;;;6.69;83.28
1371;BME280;14306;49.942;11.570;2023-02-12T00:28:47;99395.38;;;6.28;84.78
1371;BME280;14306;49.942;11.570;2023-02-12T00:31:18;99399.47;;;6.31;84.90
1371;BME280;14306;49.942;11.570;2023-02-12T00:33:48;99412.47;;;6.04;86.58
1371;BME280;14306;49.942;11.570;2023-02-12T00:36:18;99403.22;;;6.30;85.78
1371;BME280;14306;49.942;11.570;2023-02-12T00:38:47;99408.16;;;6.62;84.50
1371;BME280;14306;49.942;11.570;2023-02-12T00:41:15;99402.75;;;6.51;84.45
1371;BME280;14306;49.942;11.570;2023-02-12T00:43:43;99397.69;;;6.43;84.43
1371;BME280;14306;49.942;11.570;2023-02-12T00:46:11;99402.00;;;6.44;84.79
1371;BME280;14306;49.942;11.570;2023-02-12T00:48:41;99402.03;;;6.26;85.40
1371;BME280;14306;49.942;11.570;2023-02-12T00:51:10;99398.94;;;6.11;85.63
1371;BME280;14306;49.942;11.570;2023-02-12T00:53:38;99398.88;;;5.99;87.00
1371;BME280;14306;49.942;11.570;2023-02-12T00:56:07;99406.94;;;5.99;86.15
1371;BME280;14306;49.942;11.570;2023-02-12T00:58:37;99388.03;;;5.88;87.70
1371;BME280;14306;49.942;11.570;2023-02-12T01:01:05;99399.22;;;6.21;85.96
1371;BME280;14306;49.942;11.570;2023-02-12T01:03:34;99401.69;;;6.04;86.90
1371;BME280;14306;49.942;11.570;2023-02-12T01:06:04;99410.28;;;6.13;85.80
1371;BME280;14306;49.942;11.570;2023-02-12T01:08:32;99411.19;;;6.07;86.99
1371;BME280;14306;49.942;11.570;2023-02-12T01:11:02;99404.38;;;6.22;86.59
1371;BME280;14306;49.942;11.570;2023-02-12T01:13:32;99407.78;;;6.29;86.33
1371;BME280;14306;49.942;11.570;2023-02-12T01:16:04;99402.53;;;6.05;86.63
1371;BME280;14306;49.942;11.570;2023-02-12T01:18:35;99413.13;;;6.47;85.61
1371;BME280;14306;49.942;11.570;2023-02-12T01:21:09;99408.81;;;6.46;85.33
1371;BME280;14306;49.942;11.570;2023-02-12T01:23:37;99407.41;;;6.44;85.91
1371;BME280;14306;49.942;11.570;2023-02-12T01:26:06;99412.47;;;6.52;85.36
1371;BME280;14306;49.942;11.570;2023-02-12T01:28:37;99414.63;;;6.43;85.64
1371;BME280;14306;49.942;11.570;2023-02-12T01:31:09;99418.00;;;6.39;85.02
1371;BME280;14306;49.942;11.570;2023-02-12T01:33:38;99419.56;;;6.46;85.70
1371;BME280;14306;49.942;11.570;2023-02-12T01:36:09;99424.94;;;6.46;85.78
1371;BME280;14306;49.942;11.570;2023-02-12T01:38:37;99422.16;;;6.23;86.34
1371;BME280;14306;49.942;11.570;2023-02-12T01:41:08;99425.16;;;6.15;86.58
1371;BME280;14306;49.942;11.570;2023-02-12T01:43:37;99420.44;;;6.11;87.37
1371;BME280;14306;49.942;11.570;2023-02-12T01:46:06;99419.47;;;6.23;86.86
1371;BME280;14306;49.942;11.570;2023-02-12T01:48:37;99424.63;;;6.25;87.61
1371;BME280;14306;49.942;11.570;2023-02-12T01:51:10;99415.41;;;6.32;86.89
1371;BME280;14306;49.942;11.570;2023-02-12T01:53:44;99413.53;;;6.33;86.19
1371;BME280;14306;49.942;11.570;2023-02-12T01:56:13;99426.88;;;6.28;87.23
1371;BME280;14306;49.942;11.570;2023-02-12T01:58:44;99425.94;;;6.63;85.25
1371;BME280;14306;49.942;11.570;2023-02-12T02:01:15;99418.63;;;6.23;87.66
1371;BME280;14306;49.942;11.570;2023-02-12T02:03:48;99421.28;;;6.11;88.23
1371;BME280;14306;49.942;11.570;2023-02-12T02:06:24;99426.81;;;6.46;86.98
1371;BME280;14306;49.942;11.570;2023-02-12T02:08:54;99430.63;;;6.56;86.16
1371;BME280;14306;49.942;11.570;2023-02-12T02:11:23;99428.38;;;6.53;85.50
1371;BME280;14306;49.942;11.570;2023-02-12T02:14:09;99437.69;;;6.21;88.54
1371;BME280;14306;49.942;11.570;2023-02-12T02:17:02;99438.81;;;6.32;88.06
1371;BME280;14306;49.942;11.570;2023-02-12T02:19:49;99433.28;;;6.27;87.75
1371;BME280;14306;49.942;11.570;2023-02-12T02:22:27;99438.59;;;5.97;89.66
1371;BME280;14306;49.942;11.570;2023-02-12T02:28:01;99433.88;;;5.93;90.22
1371;BME280;14306;49.942;11.570;2023-02-12T02:30:37;99418.00;;;5.91;89.89
1371;BME280;14306;49.942;11.570;2023-02-12T02:33:24;99435.06;;;6.33;88.65
1371;BME280;14306;49.942;11.570;2023-02-12T02:36:11;99424.00;;;6.23;89.06
1371;BME280;14306;49.942;11.570;2023-02-12T02:38:43;99424.22;;;6.21;89.52
1371;BME280;14306;49.942;11.570;2023-02-12T02:41:18;99425.28;;;6.38;88.93
1371;BME280;14306;49.942;11.570;2023-02-12T02:43:49;99420.34;;;6.35;87.48
1371;BME280;14306;49.942;11.570;2023-02-12T02:46:25;99416.09;;;6.57;87.06
1371;BME280;14306;49.942;11.570;2023-02-12T02:48:58;99412.13;;;6.30;88.04
1371;BME280;14306;49.942;11.570;2023-02-12T02:51:30;99416.00;;;6.34;88.06
1371;BME280;14306;49.942;11.570;2023-02-12T02:54:03;99426.81;;;6.46;87.13
1371;BME280;14306;49.942;11.570;2023-02-12T02:56:34;99426.16;;;6.62;86.95
1371;BME280;14306;49.942;11.570;2023-02-12T02:59:06;99429.59;;;6.69;86.88
1371;BME280;14306;49.942;11.570;2023-02-12T03:01:41;99430.13;;;6.59;87.25
1371;BME280;14306;49.942;11.570;2023-02-12T03:04:16;99418.19;;;6.55;86.56
1371;BME280;14306;49.942;11.570;2023-02-12T03:06:49;99427.94;;;6.56;88.13
1371;BME280;14306;49.942;11.570;2023-02-12T03:09:22;99434.41;;;6.67;87.08
1371;BME280;14306;49.942;11.570;2023-02-12T03:11:58;99426.25;;;6.55;87.02
1371;BME280;14306;49.942;11.570;2023-02-12T03:14:30;99432.59;;;6.61;86.76
1371;BME280;14306;49.942;11.570;2023-02-12T03:17:03;99428.09;;;6.25;87.61
1371;BME280;14306;49.942;11.570;2023-02-12T03:19:33;99432.13;;;6.05;89.16
1371;BME280;14306;49.942;11.570;2023-02-12T03:22:08;99435.91;;;5.97;89.78
1371;BME280;14306;49.942;11.570;2023-02-12T03:24:40;99450.91;;;6.23;90.03
1371;BME280;14306;49.942;11.570;2023-02-12T03:27:14;99439.06;;;6.42;88.97
1371;BME280;14306;49.942;11.570;2023-02-12T03:29:44;99434.41;;;6.37;89.00
1371;BME280;14306;49.942;11.570;2023-02-12T03:32:23;99451.13;;;6.39;87.64
1371;BME280;14306;49.942;11.570;2023-02-12T03:35:12;99443.13;;;6.51;88.32
1371;BME280;14306;49.942;11.570;2023-02-12T03:37:46;99452.75;;;6.40;88.89
1371;BME280;14306;49.942;11.570;2023-02-12T03:40:21;99444.50;;;6.24;88.67
1371;BME280;14306;49.942;11.570;2023-02-12T03:42:57;99447.34;;;6.29;88.92
1371;BME280;14306;49.942;11.570;2023-02-12T03:45:36;99438.00;;;6.13;89.20
1371;BME280;14306;49.942;11.570;2023-02-12T03:48:11;99447.72;;;6.14;89.27
1371;BME280;14306;49.942;11.570;2023-02-12T03:50:47;99435.38;;;6.07;89.77
1371;BME280;14306;49.942;11.570;2023-02-12T03:53:18;99447.78;;;6.26;89.25
1371;BME280;14306;49.942;11.570;2023-02-12T03:55:51;99443.53;;;6.00;90.22
1371;BME280;14306;49.942;11.570;2023-02-12T03:58:23;99441.69;;;6.01;90.05
1371;BME280;14306;49.942;11.570;2023-02-12T04:00:53;99449.03;;;5.87;89.84
1371;BME280;14306;49.942;11.570;2023-02-12T04:03:23;99451.91;;;6.10;88.73
1371;BME280;14306;49.942;11.570;2023-02-12T04:05:52;99452.84;;;6.34;88.78
1371;BME280;14306;49.942;11.570;2023-02-12T04:08:20;99449.88;;;6.06;89.40
1371;BME280;14306;49.942;11.570;2023-02-12T04:10:58;99451.59;;;6.18;89.31
1371;BME280;14306;49.942;11.570;2023-02-12T04:13:36;99455.94;;;6.01;90.01
1371;BME280;14306;49.942;11.570;2023-02-12T04:16:16;99460.69;;;6.17;89.92
1371;BME280;14306;49.942;11.570;2023-02-12T04:18:48;99461.22;;;6.08;89.85
1371;BME280;14306;49.942;11.570;2023-02-12T04:21:31;99474.53;;;6.03;89.31
1371;BME280;14306;49.942;11.570;2023-02-12T04:24:11;99463.25;;;6.30;89.21
1371;BME280;14306;49.942;11.570;2023-02-12T04:26:48;99467.22;;;6.10;89.63
1371;BME280;14306;49.942;11.570;2023-02-12T04:29:27;99468.94;;;6.22;88.92
1371;BME280;14306;49.942;11.570;2023-02-12T04:32:03;99471.31;;;5.94;90.23
1371;BME280;14306;49.942;11.570;2023-02-12T04:34:38;99486.91;;;6.04;90.09
1371;BME280;14306;49.942;11.570;2023-02-12T04:37:14;99486.50;;;6.25;89.36
1371;BME280;14306;49.942;11.570;2023-02-12T04:39:44;99486.19;;;6.15;88.92
1371;BME280;14306;49.942;11.570;2023-02-12T04:42:13;99479.69;;;6.04;90.13
1371;BME280;14306;49.942;11.570;2023-02-12T04:44:42;99483.19;;;5.87;91.55
1371;BME280;14306;49.942;11.570;2023-02-12T04:47:11;99476.25;;;6.15;91.21
1371;BME280;14306;49.942;11.570;2023-02-12T04:49:41;99488.78;;;6.39;89.70
1371;BME280;14306;49.942;11.570;2023-02-12T04:52:09;99486.47;;;6.07;89.90
1371;BME280;14306;49.942;11.570;2023-02-12T04:54:37;99484.44;;;6.02;91.37
1371;BME280;14306;49.942;11.570;2023-02-12T04:57:06;99460.03;;;6.04;90.65
1371;BME280;14306;49.942;11.570;2023-02-12T04:59:34;99482.44;;;6.52;89.49
1371;BME280;14306;49.942;11.570;2023-02-12T05:02:02;99483.19;;;6.41;88.15
1371;BME280;14306;49.942;11.570;2023-02-12T05:04:30;99479.69;;;6.22;89.96
1371;BME280;14306;49.942;11.570;2023-02-12T05:07:00;99487.00;;;5.97;91.09
1371;BME280;14306;49.942;11.570;2023-02-12T05:09:28;99477.06;;;6.16;90.70
1371;BME280;14306;49.942;11.570;2023-02-12T05:11:57;99476.63;;;6.01;90.02
1371;BME280;14306;49.942;11.570;2023-02-12T05:14:25;99472.50;;;5.98;91.39
1371;BME280;14306;49.942;11.570;2023-02-12T05:16:54;99482.56;;;5.85;91.32
1371;BME280;14306;49.942;11.570;2023-02-12T05:19:22;99485.72;;;6.00;90.47
1371;BME280;14306;49.942;11.570;2023-02-12T05:21:50;99480.38;;;6.18;90.41
1371;BME280;14306;49.942;11.570;2023-02-12T05:24:21;99481.34;;;6.23;89.93
1371;BME280;14306;49.942;11.570;2023-02-12T05:26:49;99483.72;;;6.31;89.24
1371;BME280;14306;49.942;11.570;2023-02-12T05:29:17;99488.34;;;6.24;88.96
1371;BME280;14306;49.942;11.570;2023-02-12T05:31:46;99486.78;;;5.99;89.31
1371;BME280;14306;49.942;11.570;2023-02-12T05:34:15;99486.13;;;6.03;90.30
1371;BME280;14306;49.942;11.570;2023-02-12T05:36:43;99491.84;;;5.89;90.40
1371;BME280;14306;49.942;11.570;2023-02-12T05:39:11;99496.88;;;6.03;89.63
1371;BME280;14306;49.942;11.570;2023-02-12T05:41:41;99495.13;;;5.91;90.53
1371;BME280;14306;49.942;11.570;2023-02-12T05:44:09;99501.56;;;6.08;90.03
1371;BME280;14306;49.942;11.570;2023-02-12T05:46:38;99500.38;;;5.79;89.92
1371;BME280;14306;49.942;11.570;2023-02-12T05:49:07;99497.84;;;6.09;90.64
1371;BME280;14306;49.942;11.570;2023-02-12T05:51:35;99504.88;;;6.28;89.08
1371;BME280;14306;49.942;11.570;2023-02-12T05:54:06;99501.03;;;6.17;88.92
1371;BME280;14306;49.942;11.570;2023-02-12T05:56:36;99502.78;;;6.30;88.04
1371;BME280;14306;49.942;11.570;2023-02-12T05:59:10;99499.34;;;6.23;87.90
1371;BME280;14306;49.942;11.570;2023-02-12T06:01:42;99510.16;;;6.16;88.86
1371;BME280;14306;49.942;11.570;2023-02-12T06:04:14;99508.91;;;6.01;90.11
1371;BME280;14306;49.942;11.570;2023-02-12T06:06:43;99518.56;;;6.26;89.21
1371;BME280;14306;49.942;11.570;2023-02-12T06:09:12;99507.41;;;5.80;90.34
1371;BME280;14306;49.942;11.570;2023-02-12T06:11:41;99515.78;;;6.15;90.29
1371;BME280;14306;49.942;11.570;2023-02-12T06:14:14;99514.94;;;6.32;89.17
1371;BME280;14306;49.942;11.570;2023-02-12T06:16:43;99509.06;;;6.24;89.63
1371;BME280;14306;49.942;11.570;2023-02-12T06:19:12;99509.00;;;6.30;89.30
1371;BME280;14306;49.942;11.570;2023-02-12T06:21:41;99516.53;;;6.22;89.65
1371;BME280;14306;49.942;11.570;2023-02-12T06:24:11;99520.16;;;5.91;90.14
1371;BME280;14306;49.942;11.570;2023-02-12T06:26:40;99535.19;;;5.99;89.98
1371;BME280;14306;49.942;11.570;2023-02-12T06:29:09;99524.72;;;6.27;89.02
1371;BME280;14306;49.942;11.570;2023-02-12T06:31:38;99526.97;;;6.30;89.23
1371;BME280;14306;49.942;11.570;2023-02-12T06:34:09;99525.75;;;5.65;92.30
1371;BME280;14306;49.942;11.570;2023-02-12T06:36:39;99532.69;;;5.48;92.89
1371;BME280;14306;49.942;11.570;2023-02-12T06:39:08;99544.31;;;5.18;93.82
1371;BME280;14306;49.942;11.570;2023-02-12T06:41:37;99534.44;;;5.36;93.96
1371;BME280;14306;49.942;11.570;2023-02-12T06:44:05;99552.38;;;5.98;92.10
1371;BME280;14306;49.942;11.570;2023-02-12T06:46:34;99553.31;;;5.85;91.45
1371;BME280;14306;49.942;11.570;2023-02-12T06:49:04;99558.38;;;5.69;91.99
1371;BME280;14306;49.942;11.570;2023-02-12T06:51:32;99561.63;;;6.02;91.65
1371;BME280;14306;49.942;11.570;2023-02-12T06:54:02;99557.25;;;6.07;90.41
1371;BME280;14306;49.942;11.570;2023-02-12T06:56:30;99561.25;;;5.43;92.73
1371;BME280;14306;49.942;11.570;2023-02-12T06:58:59;99562.00;;;5.25;93.60
1371;BME280;14306;49.942;11.570;2023-02-12T07:01:29;99553.25;;;5.36;93.65
1371;BME280;14306;49.942;11.570;2023-02-12T07:03:59;99572.38;;;5.77;91.84
1371;BME280;14306;49.942;11.570;2023-02-12T07:06:32;99562.16;;;5.61;91.70
1371;BME280;14306;49.942;11.570;2023-02-12T07:09:01;99574.91;;;5.72;92.26
1371;BME280;14306;49.942;11.570;2023-02-12T07:11:31;99575.22;;;6.07;90.90
1371;BME280;14306;49.942;11.570;2023-02-12T07:14:03;99564.84;;;5.61;91.42
1371;BME280;14306;49.942;11.570;2023-02-12T07:16:32;99577.16;;;5.44;93.48
1371;BME280;14306;49.942;11.570;2023-02-12T07:19:00;99568.09;;;5.45;92.35
1371;BME280;14306;49.942;11.570;2023-02-12T07:21:30;99574.88;;;6.03;91.87
1371;BME280;14306;49.942;11.570;2023-02-12T07:23:59;99584.00;;;6.20;90.54
1371;BME280;14306;49.942;11.570;2023-02-12T07:26:27;99588.06;;;5.80;91.51
1371;BME280;14306;49.942;11.570;2023-02-12T07:28:56;99584.03;;;5.96;90.85
1371;BME280;14306;49.942;11.570;2023-02-12T07:31:25;99585.34;;;6.11;90.93
1371;BME280;14306;49.942;11.570;2023-02-12T07:33:55;99590.31;;;6.08;91.25
1371;BME280;14306;49.942;11.570;2023-02-12T07:36:24;99594.94;;;6.61;90.07
1371;BME280;14306;49.942;11.570;2023-02-12T07:38:54;99597.84;;;6.24;90.02
1371;BME280;14306;49.942;11.570;2023-02-12T07:41:24;99594.09;;;6.25;90.44
1371;BME280;14306;49.942;11.570;2023-02-12T07:43:55;99601.44;;;6.54;90.38
1371;BME280;14306;49.942;11.570;2023-02-12T07:46:25;99598.44;;;6.80;89.58
1371;BME280;14306;49.942;11.570;2023-02-12T07:48:56;99609.88;;;6.39;90.50
1371;BME280;14306;49.942;11.570;2023-02-12T07:51:26;99599.13;;;6.75;89.95
1371;BME280;14306;49.942;11.570;2023-02-12T07:53:55;99605.84;;;6.84;89.45
1371;BME280;14306;49.942;11.570;2023-02-12T07:56:26;99607.47;;;7.03;87.03
1371;BME280;14306;49.942;11.570;2023-02-12T07:58:58;99606.91;;;6.83;89.61
1371;BME280;14306;49.942;11.570;2023-02-12T08:01:30;99608.22;;;7.10;88.98
1371;BME280;14306;49.942;11.570;2023-02-12T08:03:59;99614.69;;;7.39;87.81
1371;BME280;14306;49.942;11.570;2023-02-12T08:06:30;99614.28;;;7.06;87.63
1371;BME280;14306;49.942;11.570;2023-02-12T08:09:08;99610.66;;;6.64;89.55
1371;BME280;14306;49.942;11.570;2023-02-12T08:11:40;99611.69;;;6.81;90.06
1371;BME280;14306;49.942;11.570;2023-02-12T08:14:10;99619.53;;;7.01;88.79
1371;BME280;14306;49.942;11.570;2023-02-12T08:16:40;99619.84;;;7.40;88.26
1371;BME280;14306;49.942;11.570;2023-02-12T08:19:09;99607.38;;;7.28;87.83
1371;BME280;14306;49.942;11.570;2023-02-12T08:21:52;99617.59;;;7.08;87.86
1371;BME280;14306;49.942;11.570;2023-02-12T08:24:23;99618.59;;;7.25;88.93
1371;BME280;14306;49.942;11.570;2023-02-12T08:26:52;99617.19;;;7.04;88.30
1371;BME280;14306;49.942;11.570;2023-02-12T08:29:23;99614.84;;;7.26;88.78
1371;BME280;14306;49.942;11.570;2023-02-12T08:31:55;99616.97;;;7.06;88.36
1371;BME280;14306;49.942;11.570;2023-02-12T08:34:25;99626.88;;;6.94;89.76
1371;BME280;14306;49.942;11.570;2023-02-12T08:36:54;99619.81;;;7.11;89.03
1371;BME280;14306;49.942;11.570;2023-02-12T08:39:26;99623.94;;;7.43;88.61
1371;BME280;14306;49.942;11.570;2023-02-12T08:41:55;99621.88;;;7.56;88.10
1371;BME280;14306;49.942;11.570;2023-02-12T08:44:23;99624.75;;;7.14;89.38
1371;BME280;14306;49.942;11.570;2023-02-12T08:46:52;99621.78;;;6.86;90.57
1371;BME280;14306;49.942;11.570;2023-02-12T08:49:22;99618.25;;;6.85;90.18
1371;BME280;14306;49.942;11.570;2023-02-12T08:51:53;99632.00;;;7.13;89.91
1371;BME280;14306;49.942;11.570;2023-02-12T08:54:25;99634.56;;;7.38;89.86
1371;BME280;14306;49.942;11.570;2023-02-12T08:56:54;99625.06;;;7.35;90.00
1371;BME280;14306;49.942;11.570;2023-02-12T08:59:23;99635.50;;;7.61;88.99
1371;BME280;14306;49.942;11.570;2023-02-12T09:01:52;99640.97;;;7.55;88.24
1371;BME280;14306;49.942;11.570;2023-02-12T09:04:24;99634.25;;;7.16;90.06
1371;BME280;14306;49.942;11.570;2023-02-12T09:06:53;99642.66;;;7.38;90.98
1371;BME280;14306;49.942;11.570;2023-02-12T09:09:23;99631.09;;;7.49;89.38
1371;BME280;14306;49.942;11.570;2023-02-12T09:11:52;99641.16;;;7.71;89.25
1371;BME280;14306;49.942;11.570;2023-02-12T09:14:20;99639.66;;;7.87;88.59
1371;BME280;14306;49.942;11.570;2023-02-12T09:16:51;99645.03;;;7.75;89.58
1371;BME280;14306;49.942;11.570;2023-02-12T09:19:19;99640.34;;;7.41;89.74
1371;BME280;14306;49.942;11.570;2023-02-12T09:21:53;99633.59;;;7.03;90.66
1371;BME280;14306;49.942;11.570;2023-02-12T09:24:25;99642.00;;;7.24;90.15
1371;BME280;14306;49.942;11.570;2023-02-12T09:26:54;99644.34;;;7.50;90.84
1371;BME280;14306;49.942;11.570;2023-02-12T09:29:23;99628.91;;;7.57;90.22
1371;BME280;14306;49.942;11.570;2023-02-12T09:31:51;99643.84;;;7.42;90.37
1371;BME280;14306;49.942;11.570;2023-02-12T09:34:20;99647.81;;;7.10;90.08
1371;BME280;14306;49.942;11.570;2023-02-12T09:36:49;99643.91;;;7.24;91.43
1371;BME280;14306;49.942;11.570;2023-02-12T09:39:17;99648.84;;;7.27;90.22
1371;BME280;14306;49.942;11.570;2023-02-12T09:44:45;99648.50;;;8.17;90.55
1371;BME280;14306;49.942;11.570;2023-02-12T09:47:24;99649.31;;;7.65;90.23
1371;BME280;14306;49.942;11.570;2023-02-12T09:50:02;99653.06;;;8.16;91.75
1371;BME280;14306;49.942;11.570;2023-02-12T09:52:34;99656.50;;;8.93;85.78
1371;BME280;14306;49.942;11.570;2023-02-12T09:55:03;99664.00;;;9.02;85.12
1371;BME280;14306;49.942;11.570;2023-02-12T09:57:35;99655.50;;;8.71;88.42
1371;BME280;14306;49.942;11.570;2023-02-12T10:00:09;99654.41;;;9.62;88.75
1371;BME280;14306;49.942;11.570;2023-02-12T10:02:39;99646.53;;;10.05;87.30
1371;BME280;14306;49.942;11.570;2023-02-12T10:05:15;99646.22;;;10.35;83.73
1371;BME280;14306;49.942;11.570;2023-02-12T10:07:59;99640.38;;;9.09;87.35
1371;BME280;14306;49.942;11.570;2023-02-12T10:10:44;99639.69;;;9.42;84.71
1371;BME280;14306;49.942;11.570;2023-02-12T10:13:26;99643.78;;;9.89;84.66
1371;BME280;14306;49.942;11.570;2023-02-12T10:16:01;99650.00;;;9.73;83.37
1371;BME280;14306;49.942;11.570;2023-02-12T10:18:46;99638.19;;;9.62;85.22
1371;BME280;14306;49.942;11.570;2023-02-12T10:21:29;99651.41;;;9.47;85.27
1371;BME280;14306;49.942;11.570;2023-02-12T10:24:13;99648.09;;;9.57;84.16
1371;BME280;14306;49.942;11.570;2023-02-12T10:26:47;99636.78;;;9.60;83.80
1371;BME280;14306;49.942;11.570;2023-02-12T10:29:19;99643.66;;;9.67;83.00
1371;BME280;14306;49.942;11.570;2023-02-12T10:31:52;99649.00;;;9.62;83.23
1371;BME280;14306;49.942;11.570;2023-02-12T10:34:31;99646.13;;;9.69;85.69
1371;BME280;14306;49.942;11.570;2023-02-12T10:37:03;99638.13;;;9.90;84.26
1371;BME280;14306;49.942;11.570;2023-02-12T10:39:40;99639.59;;;9.81;85.71
1371;BME280;14306;49.942;11.570;2023-02-12T10:42:13;99636.28;;;9.07;86.40
1371;BME280;14306;49.942;11.570;2023-02-12T10:44:45;99637.16;;;8.50;89.47
1371;BME280;14306;49.942;11.570;2023-02-12T10:47:17;99637.72;;;8.98;90.12
1371;BME280;14306;49.942;11.570;2023-02-12T10:49:51;99640.94;;;9.95;84.94
1371;BME280;14306;49.942;11.570;2023-02-12T10:52:33;99645.22;;;9.91;86.58
1371;BME280;14306;49.942;11.570;2023-02-12T10:55:22;99647.38;;;9.61;87.58
1371;BME280;14306;49.942;11.570;2023-02-12T10:57:52;99647.81;;;10.14;85.67
1371;BME280;14306;49.942;11.570;2023-02-12T11:00:26;99637.56;;;9.88;85.37
1371;BME280;14306;49.942;11.570;2023-02-12T11:03:03;99640.78;;;10.51;83.67
1371;BME280;14306;49.942;11.570;2023-02-12T11:05:33;99640.88;;;10.56;82.46
1371;BME280;14306;49.942;11.570;2023-02-12T11:08:03;99646.63;;;10.60;84.60
1371;BME280;14306;49.942;11.570;2023-02-12T11:10:36;99637.81;;;10.69;83.57
1371;BME280;14306;49.942;11.570;2023-02-12T11:13:20;99641.38;;;10.37;85.23
1371;BME280;14306;49.942;11.570;2023-02-12T11:15:51;99638.22;;;9.79;85.83
1371;BME280;14306;49.942;11.570;2023-02-12T11:18:22;99640.00;;;10.51;84.72
1371;BME280;14306;49.942;11.570;2023-02-12T11:20:55;99640.66;;;10.08;85.27
1371;BME280;14306;49.942;11.570;2023-02-12T11:23:26;99641.31;;;10.15;86.22
1371;BME280;14306;49.942;11.570;2023-02-12T11:25:58;99641.00;;;11.04;82.05
1371;BME280;14306;49.942;11.570;2023-02-12T11:28:28;99643.25;;;10.53;79.75
1371;BME280;14306;49.942;11.570;2023-02-12T11:31:00;99634.41;;;10.57;82.13
1371;BME280;14306;49.942;11.570;2023-02-12T11:33:31;99631.78;;;10.84;82.95
1371;BME280;14306;49.942;11.570;2023-02-12T11:36:02;99628.50;;;11.25;79.60
1371;BME280;14306;49.942;11.570;2023-02-12T11:38:36;99623.22;;;10.92;81.28
1371;BME280;14306;49.942;11.570;2023-02-12T11:41:18;99621.84;;;11.32;80.33
1371;BME280;14306;49.942;11.570;2023-02-12T11:43:49;99622.72;;;10.95;80.92
1371;BME280;14306;49.942;11.570;2023-02-12T11:46:22;99619.13;;;11.32;78.07
1371;BME280;14306;49.942;11.570;2023-02-12T11:48:53;99625.47;;;11.43;76.39
1371;BME280;14306;49.942;11.570;2023-02-12T11:51:25;99620.63;;;10.80;78.32
1371;BME280;14306;49.942;11.570;2023-02-12T11:53:57;99624.53;;;10.89;77.94
1371;BME280;14306;49.942;11.570;2023-02-12T11:56:39;99617.63;;;10.98;77.96
1371;BME280;14306;49.942;11.570;2023-02-12T11:59:16;99608.97;;;11.01;76.66
1371;BME280;14306;49.942;11.570;2023-02-12T12:01:50;99617.09;;;10.80;80.90
1371;BME280;14306;49.942;11.570;2023-02-12T12:04:23;99613.53;;;11.17;81.43
1371;BME280;14306;49.942;11.570;2023-02-12T12:06:57;99619.25;;;10.99;79.97
1371;BME280;14306;49.942;11.570;2023-02-12T12:09:33;99610.03;;;10.24;84.79
1371;BME280;14306;49.942;11.570;2023-02-12T12:12:09;99609.94;;;10.52;83.08
1371;BME280;14306;49.942;11.570;2023-02-12T12:14:45;99608.84;;;11.13;78.15
1371;BME280;14306;49.942;11.570;2023-02-12T12:17:40;99607.22;;;11.12;76.80
1371;BME280;14306;49.942;11.570;2023-02-12T12:20:32;99598.59;;;10.55;80.41
1371;BME280;14306;49.942;11.570;2023-02-12T12:23:06;99607.72;;;11.09;78.88
1371;BME280;14306;49.942;11.570;2023-02-12T12:25:42;99615.81;;;11.52;79.32
1371;BME280;14306;49.942;11.570;2023-02-12T12:28:26;99612.88;;;11.58;74.78
1371;BME280;14306;49.942;11.570;2023-02-12T12:31:02;99612.69;;;11.17;75.79
1371;BME280;14306;49.942;11.570;2023-02-12T12:33:40;99616.41;;;10.89;76.70
1371;BME280;14306;49.942;11.570;2023-02-12T12:39:27;99620.88;;;10.41;79.46
1371;BME280;14306;49.942;11.570;2023-02-12T12:42:13;99620.59;;;10.97;80.26
1371;BME280;14306;49.942;11.570;2023-02-12T12:44:58;99617.88;;;11.18;77.82
1371;BME280;14306;49.942;11.570;2023-02-12T12:47:41;99626.66;;;11.04;79.27
1371;BME280;14306;49.942;11.570;2023-02-12T12:50:26;99622.34;;;11.56;75.85
1371;BME280;14306;49.942;11.570;2023-02-12T12:53:06;99620.97;;;11.27;78.15
1371;BME280;14306;49.942;11.570;2023-02-12T12:55:53;99618.28;;;11.32;78.71
1371;BME280;14306;49.942;11.570;2023-02-12T12:58:36;99611.66;;;11.01;79.58
1371;BME280;14306;49.942;11.570;2023-02-12T13:01:23;99616.84;;;11.46;76.29
1371;BME280;14306;49.942;11.570;2023-02-12T13:07:21;99618.59;;;11.35;75.22
1371;BME280;14306;49.942;11.570;2023-02-12T13:10:05;99620.13;;;11.26;74.73
1371;BME280;14306;49.942;11.570;2023-02-12T13:12:54;99621.06;;;11.37;74.17
1371;BME280;14306;49.942;11.570;2023-02-12T13:15:31;99615.66;;;11.15;74.31
1371;BME280;14306;49.942;11.570;2023-02-12T13:18:05;99616.47;;;11.16;75.17
1371;BME280;14306;49.942;11.570;2023-02-12T13:20:41;99612.38;;;11.13;74.71
1371;BME280;14306;49.942;11.570;2023-02-12T13:23:21;99613.78;;;11.16;75.72
1371;BME280;14306;49.942;11.570;2023-02-12T13:25:58;99611.41;;;10.43;79.27
1371;BME280;14306;49.942;11.570;2023-02-12T13:28:33;99614.72;;;11.05;75.15
1371;BME280;14306;49.942;11.570;2023-02-12T13:31:06;99621.72;;;11.01;74.16
1371;BME280;14306;49.942;11.570;2023-02-12T13:33:58;99601.84;;;10.19;78.86
1371;BME280;14306;49.942;11.570;2023-02-12T13:36:28;99607.56;;;10.23;79.55
1371;BME280;14306;49.942;11.570;2023-02-12T13:39:03;99594.75;;;10.73;74.58
1371;BME280;14306;49.942;11.570;2023-02-12T13:41:36;99607.03;;;10.97;74.45
1371;BME280;14306;49.942;11.570;2023-02-12T13:44:12;99602.66;;;11.17;73.33
1371;BME280;14306;49.942;11.570;2023-02-12T13:46:50;99613.56;;;11.22;73.33
1371;BME280;14306;49.942;11.570;2023-02-12T13:49:26;99607.72;;;11.09;72.81
1371;BME280;14306;49.942;11.570;2023-02-12T13:52:03;99605.88;;;10.71;75.16